Time;durP1;ratioP1;P1;durP2;ratioP2;P2;SDS_P1;SDS_P2;PMS_P1;PMS_P2;Temp;Humidity;BMP_temperature;BMP_pressure;BME280_temperature;BME280_humidity;BME280_pressure;Samples;Min_cycle;Max_cycle;Signal;HPM_P1;HPM_P2
2024/01/05 00:01:21;;;;;;;11.00;1.60;;;6.60;99.90;;;;;;5096019;27;20216;-72
2024/01/05 00:03:47;;;;;;;2.70;1.00;;;6.70;99.90;;;;;;5131518;27;20185;-72
2024/01/05 00:06:13;;;;;;;9.10;1.60;;;6.70;99.90;;;;;;5131365;27;20255;-72
2024/01/05 00:08:38;;;;;;;4.43;1.00;;;6.70;99.90;;;;;;5113094;27;20184;-72
2024/01/05 00:11:04;;;;;;;6.23;1.07;;;6.60;99.90;;;;;;5131599;27;20322;-72
2024/01/05 00:13:29;;;;;;;11.10;1.43;;;6.60;99.90;;;;;;5095995;27;20684;-72
2024/01/05 00:15:55;;;;;;;4.87;1.20;;;6.60;99.90;;;;;;5131165;27;20188;-73
2024/01/05 00:18:20;;;;;;;7.30;1.27;;;6.60;99.90;;;;;;5092140;28;20656;-73
2024/01/05 00:20:46;;;;;;;5.27;1.67;;;6.60;99.90;;;;;;5126518;27;20181;-73
2024/01/05 00:23:12;;;;;;;9.00;1.37;;;6.60;99.90;;;;;;5131167;27;20597;-73
2024/01/05 00:25:37;;;;;;;5.63;1.30;;;6.60;99.90;;;;;;5092103;28;20269;-73
2024/01/05 00:28:03;;;;;;;5.70;1.20;;;6.70;99.90;;;;;;5128748;27;20208;-72
2024/01/05 00:30:29;;;;;;;5.03;1.03;;;6.70;99.90;;;;;;5131324;27;20629;-72
2024/01/05 00:32:54;;;;;;;3.10;1.17;;;6.70;99.90;;;;;;5095492;27;20199;-73
2024/01/05 00:35:20;;;;;;;6.47;1.53;;;6.70;99.90;;;;;;5112320;27;20217;-73
2024/01/05 00:37:45;;;;;;;5.07;1.70;;;6.70;99.90;;;;;;5131044;27;20295;-72
2024/01/05 00:40:11;;;;;;;5.30;1.47;;;6.70;99.90;;;;;;5112992;27;20714;-73
2024/01/05 00:42:37;;;;;;;5.67;1.30;;;6.70;99.90;;;;;;5111810;27;20181;-72
2024/01/05 00:45:02;;;;;;;4.10;1.43;;;6.70;99.90;;;;;;5130634;27;20185;-73
2024/01/05 00:47:28;;;;;;;2.90;0.90;;;6.70;99.90;;;;;;5111718;27;20255;-73
2024/01/05 00:49:54;;;;;;;1.80;0.97;;;6.80;99.90;;;;;;5130506;27;20505;-73
2024/01/05 00:52:19;;;;;;;9.50;1.07;;;6.80;99.90;;;;;;5130577;27;20729;-73
2024/01/05 00:54:45;;;;;;;1.80;0.90;;;6.90;99.90;;;;;;5094865;27;20244;-72
2024/01/05 00:57:10;;;;;;;8.27;1.33;;;6.90;99.90;;;;;;5130640;27;20281;-72
2024/01/05 00:59:36;;;;;;;4.57;1.20;;;6.90;99.90;;;;;;5130356;27;20184;-72
2024/01/05 01:02:02;;;;;;;10.10;1.47;;;6.90;99.90;;;;;;5094880;27;20192;-71
2024/01/05 01:04:27;;;;;;;3.10;0.97;;;6.80;99.90;;;;;;5111779;27;20422;-72
2024/01/05 01:06:53;;;;;;;4.73;1.53;;;6.90;99.90;;;;;;5111601;27;20201;-72
2024/01/05 01:09:19;;;;;;;3.33;0.90;;;6.90;99.90;;;;;;5111623;27;20193;-72
2024/01/05 01:11:44;;;;;;;6.10;1.20;;;6.90;99.90;;;;;;5091192;28;20979;-71
2024/01/05 01:14:10;;;;;;;1.30;0.73;;;6.90;99.90;;;;;;5110352;27;20324;-72
2024/01/05 01:16:35;;;;;;;4.27;0.90;;;6.80;99.90;;;;;;5111544;27;20763;-72
2024/01/05 01:19:01;;;;;;;2.10;0.87;;;6.70;99.90;;;;;;5094385;27;20189;-72
2024/01/05 01:25:23;;;;;;;4.93;1.57;;;6.70;99.90;;;;;;5131381;27;20940;-73
2024/01/05 01:27:49;;;;;;;8.60;1.10;;;6.60;99.90;;;;;;5129515;27;20434;-72
2024/01/05 01:30:14;;;;;;;2.63;1.00;;;6.60;99.90;;;;;;5129593;27;20410;-72
2024/01/05 01:32:41;;;;;;;4.00;1.43;;;6.60;99.90;;;;;;5111284;27;20173;-72
2024/01/05 01:35:07;;;;;;;6.40;0.97;;;6.60;99.90;;;;;;5111128;27;20727;-72
2024/01/05 01:37:32;;;;;;;6.00;1.57;;;6.50;99.90;;;;;;5093712;27;20478;-71
2024/01/05 01:39:58;;;;;;;9.87;1.67;;;6.60;99.90;;;;;;5129442;27;20935;-72
2024/01/05 01:42:24;;;;;;;4.17;1.10;;;6.50;99.90;;;;;;5110899;27;20571;-72
2024/01/05 01:44:51;;;;;;;6.43;1.40;;;6.60;99.90;;;;;;5129351;27;20594;-72
2024/01/05 01:47:18;;;;;;;4.47;1.07;;;6.60;99.90;;;;;;5110345;27;20438;-72
2024/01/05 01:49:44;;;;;;;3.20;1.10;;;6.60;99.90;;;;;;5110405;27;20435;-72
2024/01/05 01:52:10;;;;;;;8.53;1.13;;;6.60;99.90;;;;;;5110790;27;20426;-72
2024/01/05 01:54:36;;;;;;;6.93;1.17;;;6.50;99.90;;;;;;5110081;27;20209;-72
2024/01/05 01:57:04;;;;;;;5.73;0.90;;;6.50;99.90;;;;;;5091619;28;20451;-72
2024/01/05 01:59:30;;;;;;;7.13;1.60;;;6.60;99.90;;;;;;5129352;27;20450;-72
2024/01/05 02:01:57;;;;;;;1.23;0.90;;;6.50;99.90;;;;;;5129331;28;20824;-72
2024/01/05 02:04:26;;;;;;;9.50;1.20;;;6.60;99.90;;;;;;5129282;28;20419;-73
2024/01/05 02:06:51;;;;;;;7.33;1.40;;;6.60;99.90;;;;;;5129211;28;20446;-72
2024/01/05 02:09:18;;;;;;;4.30;1.23;;;6.70;99.90;;;;;;5129289;28;20795;-72
2024/01/05 02:11:44;;;;;;;5.03;1.10;;;6.80;99.90;;;;;;5129861;28;20181;-72
2024/01/05 02:14:09;;;;;;;9.60;1.57;;;6.80;99.90;;;;;;5111090;27;20524;-72
2024/01/05 02:16:35;;;;;;;3.77;1.10;;;6.80;99.90;;;;;;5129492;28;20301;-72
2024/01/05 02:19:01;;;;;;;3.40;1.10;;;6.90;99.90;;;;;;5129310;28;20714;-72
2024/01/05 02:21:30;;;;;;;4.30;1.10;;;6.80;99.90;;;;;;5129635;28;20181;-71
2024/01/05 02:23:56;;;;;;;7.20;1.20;;;6.90;99.90;;;;;;5111467;28;20655;-72
2024/01/05 02:26:22;;;;;;;7.80;1.07;;;6.80;99.90;;;;;;5111465;28;20438;-72
2024/01/05 02:28:48;;;;;;;4.50;0.83;;;6.90;99.90;;;;;;5129963;28;20433;-72
2024/01/05 02:31:13;;;;;;;6.43;1.20;;;6.90;99.90;;;;;;5111940;28;20925;-72
2024/01/05 02:33:39;;;;;;;5.27;1.03;;;7.00;99.90;;;;;;5094099;28;20215;-72
2024/01/05 02:36:05;;;;;;;2.40;1.20;;;7.00;99.90;;;;;;5129630;28;20196;-72
2024/01/05 02:38:30;;;;;;;16.73;8.77;;;6.90;99.90;;;;;;5094049;28;20181;-72
2024/01/05 02:40:57;;;;;;;10.37;2.07;;;6.90;99.90;;;;;;5111033;28;20418;-72
2024/01/05 02:43:23;;;;;;;4.03;1.10;;;7.00;99.90;;;;;;5093855;28;20180;-72
2024/01/05 02:45:48;;;;;;;2.60;0.70;;;7.00;99.90;;;;;;5090583;28;20430;-72
2024/01/05 02:48:14;;;;;;;5.87;1.17;;;7.00;99.90;;;;;;5128556;28;20330;-72
2024/01/05 02:50:40;;;;;;;2.60;1.00;;;7.00;99.90;;;;;;5129624;27;20185;-72
2024/01/05 02:53:05;;;;;;;5.63;1.67;;;7.00;99.90;;;;;;5110876;28;20558;-72
2024/01/05 02:55:31;;;;;;;3.53;1.47;;;7.00;99.90;;;;;;5129231;28;20323;-72
2024/01/05 02:57:56;;;;;;;6.20;1.00;;;7.00;99.90;;;;;;5110644;27;20201;-72
2024/01/05 03:00:22;;;;;;;8.20;1.63;;;7.00;99.90;;;;;;5128944;28;20177;-72
2024/01/05 03:02:48;;;;;;;5.03;1.00;;;7.00;99.90;;;;;;5128995;28;20260;-72
2024/01/05 03:05:13;;;;;;;11.57;1.43;;;7.00;99.90;;;;;;5129419;27;20280;-72
2024/01/05 03:07:40;;;;;;;3.20;0.90;;;7.10;99.90;;;;;;5132686;27;20676;-72
2024/01/05 03:10:07;;;;;;;1.27;0.80;;;7.10;99.90;;;;;;5132642;27;20200;-72
2024/01/05 03:12:32;;;;;;;1.33;0.80;;;7.20;99.90;;;;;;5093769;28;20911;-72
2024/01/05 03:14:58;;;;;;;3.23;1.10;;;7.30;99.90;;;;;;5096928;27;20511;-72
2024/01/05 03:17:24;;;;;;;1.40;0.80;;;7.40;99.90;;;;;;5113900;27;20289;-72
2024/01/05 03:19:49;;;;;;;3.63;0.93;;;7.30;99.90;;;;;;5113826;27;20192;-72
2024/01/05 03:22:15;;;;;;;3.77;0.83;;;7.30;99.90;;;;;;5132746;27;20224;-72
2024/01/05 03:24:42;;;;;;;5.53;1.10;;;7.30;99.90;;;;;;5132497;27;20192;-72
2024/01/05 03:27:12;;;;;;;5.60;1.30;;;7.40;99.90;;;;;;5113522;27;20699;-72
2024/01/05 03:29:38;;;;;;;6.80;1.00;;;7.50;99.90;;;;;;5132339;27;20438;-73
2024/01/05 03:32:04;;;;;;;5.33;1.00;;;7.50;99.90;;;;;;5131977;27;20913;-72
2024/01/05 03:34:30;;;;;;;5.57;1.03;;;7.50;99.90;;;;;;5132162;27;20470;-73
2024/01/05 03:36:56;;;;;;;1.47;0.50;;;7.50;99.90;;;;;;5113289;27;20700;-72
2024/01/05 03:39:22;;;;;;;5.73;1.30;;;7.40;99.90;;;;;;5132013;27;20414;-72
2024/01/05 03:41:47;;;;;;;6.20;0.80;;;7.30;99.90;;;;;;5113386;27;20441;-72
2024/01/05 03:44:20;;;;;;;2.10;0.70;;;7.30;99.90;;;;;;5131950;27;20768;-72
2024/01/05 03:46:49;;;;;;;2.50;0.60;;;7.30;99.90;;;;;;5098380;27;20212;-72
2024/01/05 03:49:16;;;;;;;3.60;0.70;;;7.20;99.90;;;;;;5131918;27;20421;-73
2024/01/05 03:51:42;;;;;;;4.00;1.20;;;7.20;99.90;;;;;;5131852;27;21055;-72
2024/01/05 03:54:07;;;;;;;1.43;0.80;;;7.20;99.90;;;;;;5131851;27;20964;-72
2024/01/05 03:56:40;;;;;;;6.57;0.60;;;7.40;99.90;;;;;;5113331;27;20437;-74
2024/01/05 03:59:06;;;;;;;2.73;0.80;;;7.30;99.90;;;;;;5131751;27;20247;-72
2024/01/05 04:01:32;;;;;;;2.77;0.83;;;7.50;99.90;;;;;;5113178;27;20430;-72
2024/01/05 04:03:57;;;;;;;1.63;0.73;;;7.50;99.90;;;;;;5131974;27;20218;-72
2024/01/05 04:06:23;;;;;;;2.20;1.20;;;7.50;99.90;;;;;;5113395;27;20208;-73
2024/01/05 04:08:48;;;;;;;4.33;0.77;;;7.50;99.90;;;;;;5132109;27;20660;-72
2024/01/05 04:11:21;;;;;;;3.57;0.87;;;7.50;99.90;;;;;;5132166;27;20189;-72
2024/01/05 04:13:47;;;;;;;1.97;0.60;;;7.50;99.90;;;;;;5132026;27;20197;-73
2024/01/05 04:16:13;;;;;;;1.73;0.60;;;7.60;99.90;;;;;;5131649;27;20514;-73
2024/01/05 04:18:39;;;;;;;1.73;0.73;;;7.70;99.90;;;;;;5112504;27;20572;-72
2024/01/05 04:21:05;;;;;;;5.37;0.77;;;7.70;99.90;;;;;;5131244;27;20415;-72
2024/01/05 04:23:30;;;;;;;2.83;1.00;;;7.70;99.90;;;;;;5131190;27;20414;-72
2024/01/05 04:25:56;;;;;;;6.40;0.97;;;7.70;99.90;;;;;;5096358;27;20250;-73
2024/01/05 04:28:22;;;;;;;2.90;1.23;;;7.70;99.90;;;;;;5096007;27;20185;-72
2024/01/05 04:30:47;;;;;;;2.27;0.60;;;7.80;99.90;;;;;;5114158;27;20272;-73
2024/01/05 04:33:13;;;;;;;2.13;0.90;;;7.80;99.90;;;;;;5112616;27;20694;-73
2024/01/05 04:35:38;;;;;;;1.33;0.70;;;7.80;99.90;;;;;;5112252;27;20220;-73
2024/01/05 04:38:04;;;;;;;3.27;0.77;;;7.80;99.90;;;;;;5130759;27;20868;-73
2024/01/05 04:40:29;;;;;;;1.90;0.87;;;7.90;99.90;;;;;;5112318;27;20189;-73
2024/01/05 04:42:55;;;;;;;3.80;0.93;;;7.90;99.90;;;;;;5112193;27;20186;-72
2024/01/05 04:45:21;;;;;;;1.87;0.80;;;7.90;99.90;;;;;;5130582;27;20243;-73
2024/01/05 04:47:46;;;;;;;4.00;1.00;;;7.90;99.90;;;;;;5130729;27;20279;-73
2024/01/05 04:50:12;;;;;;;3.00;0.67;;;7.80;99.90;;;;;;5111971;27;20333;-72
2024/01/05 04:52:38;;;;;;;2.80;1.10;;;7.80;99.90;;;;;;5130430;27;20213;-72
2024/01/05 04:55:04;;;;;;;7.40;0.90;;;7.80;99.90;;;;;;5130345;27;20212;-72
2024/01/05 04:57:30;;;;;;;1.00;0.70;;;7.80;99.90;;;;;;5111691;27;20208;-72
2024/01/05 04:59:56;;;;;;;6.63;1.07;;;7.80;99.90;;;;;;5130238;27;20807;-72
2024/01/05 05:02:22;;;;;;;2.13;0.87;;;7.90;99.90;;;;;;5130186;27;20518;-72
2024/01/05 05:04:48;;;;;;;0.80;0.53;;;8.00;99.90;;;;;;5111688;27;20419;-71
2024/01/05 05:07:14;;;;;;;1.53;0.67;;;8.00;99.90;;;;;;5130050;27;20447;-72
2024/01/05 05:09:40;;;;;;;3.27;1.37;;;8.10;99.90;;;;;;5111409;27;20188;-72
2024/01/05 05:12:06;;;;;;;1.47;0.80;;;8.00;99.90;;;;;;5130190;27;20948;-72
2024/01/05 05:14:31;;;;;;;1.60;1.07;;;8.10;99.90;;;;;;5111653;27;20705;-73
2024/01/05 05:16:57;;;;;;;2.67;0.80;;;8.10;99.90;;;;;;5129761;27;20442;-72
2024/01/05 05:19:23;;;;;;;4.50;0.83;;;8.20;99.90;;;;;;5129889;27;20260;-73
2024/01/05 05:21:48;;;;;;;1.70;0.70;;;8.10;99.90;;;;;;5094354;27;20188;-72
2024/01/05 05:24:14;;;;;;;1.67;1.07;;;8.00;99.90;;;;;;5129759;27;20217;-72
2024/01/05 05:26:41;;;;;;;3.20;0.80;;;8.00;99.90;;;;;;5129631;27;20303;-73
2024/01/05 05:29:07;;;;;;;1.47;0.77;;;7.90;99.90;;;;;;5129649;27;20180;-73
2024/01/05 05:31:32;;;;;;;1.80;0.73;;;7.90;99.90;;;;;;5129712;27;20842;-73
2024/01/05 05:33:58;;;;;;;3.00;0.83;;;8.00;99.90;;;;;;5129747;27;20197;-73
2024/01/05 05:36:24;;;;;;;4.17;1.10;;;8.00;99.90;;;;;;5110974;27;20288;-73
2024/01/05 05:38:50;;;;;;;7.60;1.60;;;8.00;99.90;;;;;;5129645;27;20260;-73
2024/01/05 05:41:15;;;;;;;2.23;0.93;;;8.20;99.90;;;;;;5129715;27;20201;-73
2024/01/05 05:43:41;;;;;;;3.87;1.20;;;8.10;99.90;;;;;;5129866;27;21198;-72
2024/01/05 05:46:07;;;;;;;4.13;1.10;;;7.80;99.90;;;;;;5129531;27;20184;-73
2024/01/05 05:48:32;;;;;;;7.07;2.70;;;7.70;99.90;;;;;;5111238;27;20177;-73
2024/01/05 05:50:58;;;;;;;1.67;0.93;;;7.60;99.90;;;;;;5077201;27;20178;-73
2024/01/05 05:53:24;;;;;;;2.00;1.00;;;7.80;99.90;;;;;;5110975;27;20174;-73
2024/01/05 05:55:49;;;;;;;2.40;1.40;;;7.60;99.90;;;;;;5110952;27;20427;-73
2024/01/05 05:58:15;;;;;;;1.97;0.87;;;7.50;99.90;;;;;;5129401;27;20293;-73
2024/01/05 06:00:41;;;;;;;1.53;0.83;;;7.50;99.90;;;;;;5093997;27;20203;-73
2024/01/05 06:03:06;;;;;;;3.07;0.70;;;7.40;99.90;;;;;;5111039;28;20183;-73
2024/01/05 06:05:32;;;;;;;3.77;0.80;;;7.40;99.90;;;;;;5110875;28;20189;-73
2024/01/05 06:07:57;;;;;;;4.73;1.10;;;7.40;99.90;;;;;;5093875;28;20204;-73
2024/01/05 06:10:23;;;;;;;6.30;0.67;;;7.40;99.90;;;;;;5110507;28;20259;-73
2024/01/05 06:12:49;;;;;;;2.83;0.80;;;7.50;99.90;;;;;;5110873;28;20182;-74
2024/01/05 06:15:14;;;;;;;2.07;0.73;;;7.70;99.90;;;;;;5110950;28;20227;-73
2024/01/05 06:17:40;;;;;;;3.17;0.80;;;7.80;99.90;;;;;;5110845;28;20197;-72
2024/01/05 06:20:08;;;;;;;10.57;1.10;;;7.80;99.90;;;;;;5129585;28;20172;-73
2024/01/05 06:22:33;;;;;;;2.03;0.90;;;7.90;99.90;;;;;;5129240;28;20180;-73
2024/01/05 06:24:59;;;;;;;1.67;0.80;;;7.80;99.90;;;;;;5129334;28;20419;-73
2024/01/05 06:27:24;;;;;;;2.53;0.70;;;7.80;99.90;;;;;;5129112;28;20207;-73
2024/01/05 06:29:50;;;;;;;1.40;0.80;;;7.90;99.90;;;;;;5129497;28;20173;-73
2024/01/05 06:32:16;;;;;;;2.20;0.80;;;8.10;99.90;;;;;;5129656;28;20717;-74
2024/01/05 06:34:41;;;;;;;2.27;1.07;;;8.10;99.90;;;;;;5111275;28;20204;-72
2024/01/05 06:37:07;;;;;;;1.57;0.90;;;8.10;99.90;;;;;;5111411;28;20567;-73
2024/01/05 06:39:32;;;;;;;1.63;0.77;;;8.00;99.90;;;;;;5111003;27;20191;-73
2024/01/05 06:41:58;;;;;;;7.80;1.83;;;8.00;99.90;;;;;;5133057;27;20181;-73
2024/01/05 06:44:23;;;;;;;3.10;1.20;;;8.00;99.90;;;;;;5114862;27;20714;-73
2024/01/05 06:46:50;;;;;;;4.50;0.87;;;8.00;99.90;;;;;;5133497;27;20647;-72
2024/01/05 06:49:16;;;;;;;5.13;1.00;;;7.90;99.90;;;;;;5133424;27;20262;-73
2024/01/05 06:51:42;;;;;;;2.03;1.10;;;7.80;99.90;;;;;;5114550;27;20440;-73
2024/01/05 06:54:07;;;;;;;3.27;1.10;;;7.80;99.90;;;;;;5114584;27;20484;-73
2024/01/05 06:56:34;;;;;;;2.47;1.03;;;7.70;99.90;;;;;;5114428;27;20193;-73
2024/01/05 06:59:04;;;;;;;7.33;1.20;;;7.70;99.90;;;;;;5114357;27;20188;-73
2024/01/05 07:01:31;;;;;;;5.03;1.03;;;7.60;99.90;;;;;;5133152;27;20411;-72
2024/01/05 07:03:57;;;;;;;3.43;0.90;;;7.60;99.90;;;;;;5114111;27;20418;-73
2024/01/05 07:06:22;;;;;;;3.90;1.27;;;7.40;99.90;;;;;;5132825;27;21285;-73
2024/01/05 07:08:48;;;;;;;5.47;3.07;;;7.40;99.90;;;;;;5097168;27;20514;-73
2024/01/05 07:11:23;;;;;;;1.77;0.80;;;7.40;99.90;;;;;;5132545;27;20660;-73
2024/01/05 07:13:50;;;;;;;2.03;0.77;;;7.30;99.90;;;;;;5132366;27;20205;-73
2024/01/05 07:16:20;;;;;;;4.73;1.00;;;7.40;99.90;;;;;;5132178;27;20448;-73
2024/01/05 07:18:46;;;;;;;2.80;0.97;;;7.40;99.90;;;;;;5132506;27;20461;-73
2024/01/05 07:21:13;;;;;;;3.10;1.23;;;7.50;99.90;;;;;;5132413;27;20445;-73
2024/01/05 07:23:39;;;;;;;5.37;1.03;;;7.60;99.90;;;;;;5114295;27;20429;-72
2024/01/05 07:26:05;;;;;;;2.97;1.20;;;7.70;99.90;;;;;;5096744;27;21243;-73
2024/01/05 07:28:30;;;;;;;3.60;1.07;;;7.70;99.90;;;;;;5132292;27;20552;-72
2024/01/05 07:30:56;;;;;;;6.23;1.50;;;7.70;99.90;;;;;;5132183;27;20170;-73
2024/01/05 07:33:21;;;;;;;2.00;0.80;;;7.70;99.90;;;;;;5132227;27;20268;-72
2024/01/05 07:35:48;;;;;;;2.50;1.23;;;7.80;99.90;;;;;;5132022;27;20221;-73
2024/01/05 07:38:13;;;;;;;3.50;1.33;;;7.80;99.90;;;;;;5113861;27;20233;-72
2024/01/05 07:40:39;;;;;;;2.03;1.00;;;7.80;99.90;;;;;;5113686;27;20458;-73
2024/01/05 07:43:05;;;;;;;6.33;1.53;;;7.70;99.90;;;;;;5132074;27;20272;-73
2024/01/05 07:45:31;;;;;;;3.63;0.93;;;7.70;99.90;;;;;;5132011;27;20304;-73
2024/01/05 07:47:58;;;;;;;3.00;0.90;;;7.90;99.90;;;;;;5131794;27;20543;-72
2024/01/05 07:50:24;;;;;;;3.07;1.33;;;8.00;99.90;;;;;;5113517;27;20608;-73
2024/01/05 07:52:51;;;;;;;3.23;1.20;;;7.80;99.90;;;;;;5130566;27;20417;-73
2024/01/05 07:55:16;;;;;;;6.73;1.00;;;7.80;99.90;;;;;;5113222;27;21077;-71
2024/01/05 07:57:43;;;;;;;5.13;1.30;;;7.80;99.90;;;;;;5096390;27;20440;-72
2024/01/05 08:00:10;;;;;;;5.10;1.13;;;7.90;99.90;;;;;;5113345;27;20415;-73
2024/01/05 08:02:36;;;;;;;2.53;1.03;;;7.70;99.90;;;;;;5113432;27;20417;-72
2024/01/05 08:05:02;;;;;;;7.20;1.37;;;7.70;99.90;;;;;;5096350;27;20828;-72
2024/01/05 08:07:28;;;;;;;2.80;1.57;;;7.70;99.90;;;;;;5131717;27;20193;-72
2024/01/05 08:09:53;;;;;;;2.50;1.47;;;7.80;99.90;;;;;;5132053;27;20441;-72
2024/01/05 08:12:20;;;;;;;3.00;1.17;;;7.80;99.90;;;;;;5113741;27;20188;-72
2024/01/05 08:14:46;;;;;;;2.40;1.10;;;7.80;99.90;;;;;;5096463;27;20306;-71
2024/01/05 08:17:11;;;;;;;4.20;1.40;;;7.80;99.90;;;;;;5113571;27;20542;-72
2024/01/05 08:19:37;;;;;;;2.07;1.20;;;7.90;99.90;;;;;;5115154;27;20739;-71
2024/01/05 08:22:03;;;;;;;2.20;1.10;;;8.00;99.90;;;;;;5097419;27;20231;-71
2024/01/05 08:24:29;;;;;;;1.77;0.80;;;8.00;99.90;;;;;;5113900;27;20196;-71
2024/01/05 08:26:55;;;;;;;6.60;1.47;;;8.10;99.90;;;;;;5096567;27;20205;-70
2024/01/05 08:29:23;;;;;;;3.53;1.20;;;8.20;99.90;;;;;;5132087;27;20433;-71
2024/01/05 08:31:49;;;;;;;11.17;1.93;;;8.30;99.90;;;;;;5113286;27;20455;-72
2024/01/05 08:34:15;;;;;;;3.93;1.33;;;8.40;99.90;;;;;;5095207;27;20490;-72
2024/01/05 08:36:41;;;;;;;2.40;1.10;;;8.40;99.90;;;;;;5129790;27;20228;-72
2024/01/05 08:39:07;;;;;;;6.30;1.10;;;8.30;99.90;;;;;;5130096;27;20977;-72
2024/01/05 08:41:33;;;;;;;2.40;1.07;;;8.00;99.90;;;;;;5129717;27;20402;-71
2024/01/05 08:43:59;;;;;;;3.30;1.20;;;8.00;99.90;;;;;;5111035;27;20433;-73
2024/01/05 08:46:28;;;;;;;2.20;1.20;;;7.90;99.90;;;;;;5129587;27;20753;-72
2024/01/05 08:48:53;;;;;;;3.00;1.53;;;7.80;99.90;;;;;;5094052;27;20431;-73
2024/01/05 08:51:19;;;;;;;1.87;1.10;;;7.80;99.90;;;;;;5110661;27;20813;-73
2024/01/05 08:53:45;;;;;;;1.77;1.00;;;7.70;99.90;;;;;;5129226;27;20189;-73
2024/01/05 08:56:10;;;;;;;3.47;1.20;;;7.60;99.90;;;;;;5129316;27;20242;-73
2024/01/05 08:58:36;;;;;;;154.07;66.53;;;7.50;99.90;;;;;;5110518;27;20272;-72
2024/01/05 09:01:02;;;;;;;10.33;3.37;;;7.50;99.90;;;;;;5129107;27;20185;-73
2024/01/05 09:03:28;;;;;;;4.97;1.73;;;7.50;99.90;;;;;;5110106;27;20181;-73
2024/01/05 09:05:54;;;;;;;2.80;1.57;;;7.60;99.90;;;;;;5128765;27;20418;-73
2024/01/05 09:08:19;;;;;;;2.00;1.10;;;7.50;99.90;;;;;;5128943;27;20181;-72
2024/01/05 09:10:45;;;;;;;4.90;1.73;;;7.50;99.90;;;;;;5128767;27;20191;-73
2024/01/05 09:13:10;;;;;;;7.30;2.33;;;7.60;99.90;;;;;;5128929;27;20256;-72
2024/01/05 09:15:36;;;;;;;3.63;1.40;;;7.80;99.90;;;;;;5128654;27;20255;-72
2024/01/05 09:18:04;;;;;;;6.23;1.13;;;7.90;99.90;;;;;;5110438;27;21080;-72
2024/01/05 09:20:30;;;;;;;2.50;1.13;;;8.00;99.90;;;;;;5128968;27;20181;-72
2024/01/05 09:22:55;;;;;;;3.63;1.40;;;8.10;99.90;;;;;;5128903;27;20501;-73
2024/01/05 09:25:22;;;;;;;3.47;1.20;;;8.20;99.90;;;;;;5128927;27;20182;-72
2024/01/05 09:27:48;;;;;;;8.97;1.30;;;8.20;99.90;;;;;;5128448;27;20196;-72
2024/01/05 09:30:13;;;;;;;2.03;1.23;;;8.30;99.90;;;;;;5128687;27;21054;-73
2024/01/05 09:32:39;;;;;;;5.13;1.20;;;8.40;99.90;;;;;;5128488;27;20594;-73
2024/01/05 09:35:05;;;;;;;3.03;1.30;;;8.40;99.90;;;;;;5109837;27;20454;-73
2024/01/05 09:37:30;;;;;;;11.50;4.33;;;8.50;99.90;;;;;;5127986;27;20996;-73
2024/01/05 09:39:56;;;;;;;10.13;2.60;;;8.50;99.90;;;;;;5128470;27;20978;-73
2024/01/05 09:42:22;;;;;;;6.87;3.73;;;8.40;99.90;;;;;;5109902;27;20192;-73
2024/01/05 09:44:48;;;;;;;4.73;2.50;;;8.40;99.90;;;;;;5109563;27;20184;-72
2024/01/05 09:47:14;;;;;;;9.77;1.87;;;8.40;99.90;;;;;;5109322;27;20525;-73
2024/01/05 09:49:44;;;;;;;5.67;1.40;;;8.40;99.90;;;;;;5109263;27;20212;-73
2024/01/05 09:52:12;;;;;;;2.20;1.40;;;8.40;99.90;;;;;;5128021;27;21004;-73
2024/01/05 09:54:38;;;;;;;4.53;1.87;;;8.40;99.90;;;;;;5109675;27;20565;-74
2024/01/05 09:57:05;;;;;;;6.57;1.60;;;8.50;99.90;;;;;;5128068;27;20535;-73
2024/01/05 09:59:31;;;;;;;5.93;2.40;;;8.60;99.90;;;;;;5128163;27;20280;-73
2024/01/05 10:02:02;;;;;;;3.77;1.80;;;8.70;99.90;;;;;;5109124;27;20419;-73
2024/01/05 10:04:28;;;;;;;2.80;1.20;;;8.70;99.90;;;;;;5128162;27;20441;-73
2024/01/05 10:07:03;;;;;;;4.13;1.53;;;8.70;99.90;;;;;;5109255;27;20517;-73
2024/01/05 10:09:30;;;;;;;6.03;1.63;;;8.70;99.90;;;;;;5128530;28;21033;-72
2024/01/05 10:11:57;;;;;;;5.10;2.03;;;8.70;99.90;;;;;;5109375;28;20430;-72
2024/01/05 10:14:28;;;;;;;5.53;1.27;;;8.70;99.90;;;;;;5128062;27;20505;-73
2024/01/05 10:17:20;;;;;;;6.10;2.20;;;8.70;99.90;;;;;;5131171;27;20449;-73
2024/01/05 10:19:46;;;;;;;3.77;1.50;;;8.80;99.90;;;;;;5127113;27;20497;-73
2024/01/05 10:22:13;;;;;;;3.20;1.70;;;8.80;99.90;;;;;;5113128;27;20423;-73
2024/01/05 10:24:40;;;;;;;2.90;1.53;;;8.80;99.90;;;;;;5131907;27;20476;-72
2024/01/05 10:27:08;;;;;;;10.17;2.43;;;8.90;99.90;;;;;;5113689;27;20430;-73
2024/01/05 10:29:36;;;;;;;7.23;1.70;;;9.00;99.90;;;;;;5131649;27;20416;-73
2024/01/05 10:32:18;;;;;;;3.57;1.43;;;9.00;99.90;;;;;;5131906;27;20441;-72
2024/01/05 10:34:46;;;;;;;3.20;1.20;;;9.00;99.90;;;;;;5131720;27;20470;-73
2024/01/05 10:37:13;;;;;;;6.40;1.40;;;9.10;99.90;;;;;;5131543;27;20449;-73
2024/01/05 10:39:44;;;;;;;2.30;1.60;;;9.10;99.90;;;;;;5131664;27;20418;-73
2024/01/05 10:42:29;;;;;;;3.33;1.40;;;9.20;99.90;;;;;;5131342;27;20902;-72
2024/01/05 10:44:58;;;;;;;2.60;1.07;;;9.20;99.90;;;;;;5131651;27;20936;-73
2024/01/05 10:47:26;;;;;;;3.57;1.83;;;9.20;99.90;;;;;;5131364;27;20535;-72
2024/01/05 10:49:54;;;;;;;10.10;5.53;;;9.30;99.90;;;;;;5131564;27;20430;-73
2024/01/05 10:52:30;;;;;;;13.20;6.20;;;9.20;99.90;;;;;;5131343;27;20411;-73
2024/01/05 10:55:02;;;;;;;20.23;7.07;;;8.90;99.90;;;;;;5131350;27;20454;-73
2024/01/05 10:57:29;;;;;;;10.67;6.00;;;8.70;99.90;;;;;;5112714;27;20442;-72
2024/01/05 10:59:56;;;;;;;16.63;7.30;;;8.50;99.90;;;;;;5131155;27;20417;-73
2024/01/05 11:02:38;;;;;;;8.40;5.80;;;8.40;99.90;;;;;;5112634;27;20415;-72
2024/01/05 11:05:13;;;;;;;6.37;4.50;;;8.50;99.90;;;;;;5131072;27;20433;-72
2024/01/05 11:07:39;;;;;;;12.23;5.33;;;8.40;99.90;;;;;;5112335;27;20441;-73
2024/01/05 11:10:14;;;;;;;7.53;4.33;;;8.40;99.90;;;;;;5131213;27;20905;-72
2024/01/05 11:12:50;;;;;;;7.67;4.53;;;8.40;99.90;;;;;;5112506;27;20425;-72
2024/01/05 11:15:27;;;;;;;9.07;5.10;;;8.30;99.90;;;;;;5130939;27;20821;-73
2024/01/05 11:18:15;;;;;;;8.87;5.70;;;8.30;99.90;;;;;;5130843;27;20430;-73
2024/01/05 11:20:51;;;;;;;9.20;6.17;;;8.30;99.90;;;;;;5112326;27;20417;-72
2024/01/05 11:23:19;;;;;;;8.83;5.17;;;8.30;99.90;;;;;;5130974;27;20430;-72
2024/01/05 11:25:45;;;;;;;7.77;5.20;;;8.20;99.90;;;;;;5112461;27;20418;-73
2024/01/05 11:28:37;;;;;;;10.43;4.70;;;8.30;99.90;;;;;;5131247;27;20449;-73
2024/01/05 11:31:03;;;;;;;19.07;7.60;;;8.20;99.90;;;;;;5130912;27;20786;-72
2024/01/05 11:33:48;;;;;;;8.13;4.60;;;8.30;99.90;;;;;;5130453;27;20442;-73
2024/01/05 11:36:49;;;;;;;6.47;4.70;;;8.30;99.90;;;;;;5130533;27;20505;-72
2024/01/05 11:39:37;;;;;;;10.20;4.70;;;8.30;99.90;;;;;;5130596;27;21341;-72
2024/01/05 11:42:03;;;;;;;13.33;4.90;;;8.30;99.90;;;;;;5112059;27;20415;-73
2024/01/05 11:44:33;;;;;;;9.53;3.90;;;8.30;99.90;;;;;;5130480;27;20418;-73
2024/01/05 11:47:01;;;;;;;8.20;4.40;;;8.40;99.90;;;;;;5112058;27;20891;-72
2024/01/05 11:49:37;;;;;;;11.27;5.30;;;8.50;99.90;;;;;;5112272;27;20572;-73
2024/01/05 11:52:03;;;;;;;12.43;4.13;;;8.30;99.90;;;;;;5130364;27;20927;-72
2024/01/05 11:54:29;;;;;;;8.03;4.53;;;8.20;99.90;;;;;;5094635;27;20465;-73
2024/01/05 11:56:58;;;;;;;9.63;4.43;;;8.20;99.90;;;;;;5130346;27;20224;-73
2024/01/05 11:59:24;;;;;;;6.27;3.40;;;8.20;99.90;;;;;;5130276;27;20410;-73
2024/01/05 12:01:53;;;;;;;7.67;5.60;;;8.20;99.90;;;;;;5130152;27;20496;-72
2024/01/05 12:04:19;;;;;;;8.90;5.70;;;8.20;99.90;;;;;;5111453;27;20705;-73
2024/01/05 12:06:54;;;;;;;7.33;3.77;;;8.30;99.90;;;;;;5111218;27;20480;-72
2024/01/05 12:09:20;;;;;;;10.90;4.03;;;8.30;99.90;;;;;;5111256;27;20906;-73
2024/01/05 12:11:47;;;;;;;4.60;2.90;;;8.40;99.90;;;;;;5111447;27;20450;-73
2024/01/05 12:14:27;;;;;;;11.13;3.50;;;8.40;99.90;;;;;;5129871;27;20461;-73
2024/01/05 12:16:53;;;;;;;7.30;3.23;;;8.40;99.90;;;;;;5130085;27;20430;-73
2024/01/05 12:19:22;;;;;;;8.03;3.83;;;8.40;99.90;;;;;;5129908;27;20422;-73
2024/01/05 12:21:52;;;;;;;5.63;3.53;;;8.40;99.90;;;;;;5111261;27;20268;-73
2024/01/05 12:24:18;;;;;;;13.70;3.87;;;8.40;99.90;;;;;;5129904;27;20446;-73
2024/01/05 12:26:44;;;;;;;6.67;4.00;;;8.40;99.90;;;;;;5129566;27;20466;-73
2024/01/05 12:29:10;;;;;;;6.67;4.53;;;8.40;99.90;;;;;;5129422;27;20173;-73
2024/01/05 12:31:36;;;;;;;6.17;4.10;;;8.30;99.90;;;;;;5093878;27;21043;-72
2024/01/05 12:34:02;;;;;;;12.00;4.33;;;8.30;99.90;;;;;;5129477;27;20557;-72
2024/01/05 12:36:28;;;;;;;6.67;4.57;;;8.40;99.90;;;;;;5129131;27;20213;-72
2024/01/05 12:38:54;;;;;;;7.10;4.83;;;8.40;99.90;;;;;;5110362;27;20412;-73
2024/01/05 12:41:21;;;;;;;5.53;3.90;;;8.40;99.90;;;;;;5111038;27;20177;-72
2024/01/05 12:43:52;;;;;;;10.33;6.00;;;8.40;99.90;;;;;;5130818;27;20177;-73
2024/01/05 12:46:19;;;;;;;9.47;4.50;;;8.50;99.90;;;;;;5129805;27;20487;-73
2024/01/05 12:48:45;;;;;;;34.50;12.30;;;8.50;99.90;;;;;;5111240;27;20960;-73
2024/01/05 12:51:20;;;;;;;9.67;5.60;;;8.50;99.90;;;;;;5129507;27;20447;-73
2024/01/05 12:53:50;;;;;;;10.10;4.90;;;8.50;99.90;;;;;;5129521;27;20179;-73
2024/01/05 12:56:17;;;;;;;7.60;4.43;;;8.50;99.90;;;;;;5110291;27;21108;-73
2024/01/05 12:58:44;;;;;;;10.73;5.03;;;8.40;99.90;;;;;;5110297;27;20418;-73